Time;durP1;ratioP1;P1;durP2;ratioP2;P2;SDS_P1;SDS_P2;PMS_P1;PMS_P2;Temp;Humidity;BMP_temperature;BMP_pressure;BME280_temperature;BME280_humidity;BME280_pressure;Samples;Min_cycle;Max_cycle;Signal;HPM_P1;HPM_P2
2023/07/26 00:00:54;;;;;;;;;2.00;0.00;;;;;23.28;37.81;100965.47;4957682;28;45520;-40
2023/07/26 00:03:19;;;;;;;;;2.00;2.00;;;;;23.26;37.87;100962.91;4957647;28;46108;-40
2023/07/26 00:05:45;;;;;;;;;3.00;3.00;;;;;23.25;37.97;100969.19;4956950;28;45254;-40
2023/07/26 00:08:10;;;;;;;;;3.50;2.25;;;;;23.28;37.64;100973.41;4957575;28;45232;-41
2023/07/26 00:10:35;;;;;;;;;3.50;3.00;;;;;23.25;37.85;100968.31;4956682;28;45487;-43
2023/07/26 00:13:01;;;;;;;;;3.00;3.00;;;;;23.26;37.59;100972.66;4957433;28;45275;-41
2023/07/26 00:15:26;;;;;;;;;4.25;2.75;;;;;23.26;38.00;100967.38;4957479;28;45392;-40
2023/07/26 00:17:51;;;;;;;;;4.00;3.00;;;;;23.24;38.27;100966.59;4957414;28;45461;-42
2023/07/26 00:20:17;;;;;;;;;5.00;3.00;;;;;23.26;37.74;100975.28;4957326;28;45405;-45
2023/07/26 00:22:42;;;;;;;;;2.00;2.00;;;;;23.26;37.72;100970.84;4957177;28;50398;-40
2023/07/26 00:25:08;;;;;;;;;2.00;2.00;;;;;23.26;38.06;100977.94;4957520;28;51037;-44
2023/07/26 00:27:35;;;;;;;;;5.00;3.00;;;;;23.26;37.90;100976.13;4957440;28;45355;-46
2023/07/26 00:30:01;;;;;;;;;2.00;2.00;;;;;23.26;38.12;100975.28;4957709;28;45449;-47
2023/07/26 00:32:26;;;;;;;;;3.00;3.00;;;;;23.27;38.12;100977.84;4957118;28;45782;-47
2023/07/26 00:34:51;;;;;;;;;3.00;3.00;;;;;23.25;37.63;100970.94;4957238;28;45379;-42
2023/07/26 00:37:17;;;;;;;;;2.75;2.00;;;;;23.26;38.24;100973.50;4939555;28;49679;-40
2023/07/26 00:39:43;;;;;;;;;5.00;3.00;;;;;23.27;38.26;100979.66;4957155;28;45479;-47
2023/07/26 00:42:08;;;;;;;;;3.00;3.00;;;;;23.26;37.97;100973.50;4957190;28;46196;-43
2023/07/26 00:44:34;;;;;;;;;2.25;2.25;;;;;23.28;38.30;100976.88;4955785;28;47199;-43
2023/07/26 00:46:59;;;;;;;;;2.25;2.25;;;;;23.28;37.76;100973.41;4957070;28;45509;-47
2023/07/26 00:49:24;;;;;;;;;2.00;2.00;;;;;23.28;38.23;100970.75;4959316;28;45573;-46
2023/07/26 00:51:50;;;;;;;;;2.50;1.75;;;;;23.26;38.04;100972.66;4960575;28;46115;-42
2023/07/26 00:54:19;;;;;;;;;2.00;2.00;;;;;23.27;37.97;100980.47;4960491;28;45305;-46
2023/07/26 00:56:45;;;;;;;;;2.00;2.00;;;;;23.27;38.18;100979.66;4960644;28;45369;-48
2023/07/26 00:59:11;;;;;;;;;3.00;3.00;;;;;23.26;38.36;100977.94;4960978;28;45428;-41
2023/07/26 01:01:36;;;;;;;;;3.25;3.25;;;;;23.26;38.02;100984.06;4960582;28;46088;-40
2023/07/26 01:04:01;;;;;;;;;2.75;2.00;;;;;23.26;38.35;100978.78;4942880;28;48622;-43
2023/07/26 01:06:36;;;;;;;;;3.00;3.00;;;;;23.28;38.23;100981.34;4960407;28;45492;-40
2023/07/26 01:09:13;;;;;;;;;0.00;0.00;;;;;23.27;38.23;100979.66;4960782;28;45471;-44
2023/07/26 01:11:48;;;;;;;;;2.75;2.00;;;;;23.26;38.28;100975.28;4960526;28;46239;-41
2023/07/26 01:14:16;;;;;;;;;3.00;1.50;;;;;23.26;37.83;100972.66;4960023;28;45677;-41
2023/07/26 01:16:43;;;;;;;;;4.00;2.50;;;;;23.25;38.21;100968.31;4960283;28;45405;-41
2023/07/26 01:19:08;;;;;;;;;1.50;1.50;;;;;23.25;38.06;100969.19;4960699;28;45317;-43
2023/07/26 01:21:33;;;;;;;;;2.50;2.00;;;;;23.23;38.01;100964.91;4959656;28;55048;-43
2023/07/26 01:23:59;;;;;;;;;2.25;2.25;;;;;23.23;37.94;100963.13;4960130;28;45401;-41
2023/07/26 01:26:24;;;;;;;;;3.00;2.00;;;;;23.22;37.95;100961.44;4942741;28;45303;-44
2023/07/26 01:28:50;;;;;;;;;3.00;2.00;;;;;23.23;38.04;100968.41;4960096;28;45464;-40
2023/07/26 01:31:18;;;;;;;;;2.50;2.50;;;;;23.25;38.01;100960.38;4959672;28;52922;-40
2023/07/26 01:33:48;;;;;;;;;2.25;2.25;;;;;23.24;37.85;100967.47;4942520;28;45433;-40
2023/07/26 01:36:14;;;;;;;;;2.50;2.00;;;;;23.24;37.94;100970.13;4960088;28;45286;-43
2023/07/26 01:38:40;;;;;;;;;2.00;1.50;;;;;23.25;37.99;100965.66;4960520;28;45291;-46
2023/07/26 01:41:06;;;;;;;;;3.00;3.00;;;;;23.24;37.82;100967.47;4942262;28;46315;-44
2023/07/26 01:43:32;;;;;;;;;4.00;2.00;;;;;23.24;37.78;100962.19;4958893;28;45805;-45
2023/07/26 01:45:57;;;;;;;;;2.25;2.00;;;;;23.23;37.79;100957.84;4959931;28;45267;-44
2023/07/26 01:48:23;;;;;;;;;2.33;1.00;;;;;23.23;37.87;100957.84;4959185;28;56357;-44
2023/07/26 01:50:48;;;;;;;;;1.00;1.00;;;;;23.22;37.79;100956.16;4959710;28;46125;-46
2023/07/26 01:53:14;;;;;;;;;1.00;1.00;;;;;23.23;38.15;100956.97;4942288;28;46097;-39
2023/07/26 01:55:39;;;;;;;;;3.75;2.00;;;;;23.20;37.90;100963.31;4959812;28;45414;-46
2023/07/26 01:58:05;;;;;;;;;2.00;2.00;;;;;23.22;37.90;100957.91;4959870;28;45311;-41
2023/07/26 02:00:30;;;;;;;;;2.00;2.00;;;;;23.21;37.75;100958.88;4959336;28;45816;-41
2023/07/26 02:02:55;;;;;;;;;2.50;2.25;;;;;23.22;37.87;100963.22;4959417;28;45321;-43
2023/07/26 02:05:20;;;;;;;;;2.25;2.25;;;;;23.22;37.79;100956.16;4959553;28;45313;-41
2023/07/26 02:07:46;;;;;;;;;3.00;3.00;;;;;23.22;37.82;100955.28;4959319;28;45734;-44
2023/07/26 02:10:11;;;;;;;;;3.50;2.25;;;;;23.22;37.80;100948.22;4959493;28;46097;-42
2023/07/26 02:12:36;;;;;;;;;2.00;2.00;;;;;23.22;37.57;100952.63;4959296;28;45313;-43
2023/07/26 02:15:02;;;;;;;;;2.00;2.00;;;;;23.23;37.79;100955.19;4959461;28;45354;-42
2023/07/26 02:17:27;;;;;;;;;2.00;2.00;;;;;23.24;37.94;100953.38;4959558;28;45616;-43
2023/07/26 02:19:53;;;;;;;;;2.25;2.25;;;;;23.23;38.06;100957.84;4941697;28;46050;-45
2023/07/26 02:22:18;;;;;;;;;1.50;1.50;;;;;23.24;37.63;100958.69;4958859;28;55998;-42
2023/07/26 02:24:43;;;;;;;;;3.00;1.75;;;;;23.24;38.00;100964.84;4959519;28;45294;-40
2023/07/26 02:27:08;;;;;;;;;2.00;2.00;;;;;23.24;37.97;100958.69;4959257;28;45136;-41
2023/07/26 02:29:34;;;;;;;;;3.25;1.00;;;;;23.24;37.85;100956.91;4959083;28;46267;-46
2023/07/26 02:32:00;;;;;;;;;1.00;1.00;;;;;23.23;37.80;100956.97;4959106;28;45218;-41
2023/07/26 02:34:25;;;;;;;;;4.00;2.00;;;;;23.24;37.78;100953.38;4959226;28;45464;-43
2023/07/26 02:36:50;;;;;;;;;2.00;1.25;;;;;23.24;37.67;100956.03;4959111;28;45478;-42
2023/07/26 02:39:16;;;;;;;;;2.00;2.00;;;;;23.23;37.63;100956.97;4959340;28;46154;-46
2023/07/26 02:41:41;;;;;;;;;3.00;2.00;;;;;23.22;37.69;100960.56;4959035;28;45474;-40
2023/07/26 02:44:06;;;;;;;;;2.00;2.00;;;;;23.23;37.98;100959.63;4958461;28;54814;-44
2023/07/26 02:46:32;;;;;;;;;2.00;2.00;;;;;23.22;37.98;100960.56;4959094;28;45507;-43
2023/07/26 02:48:57;;;;;;;;;2.00;2.00;;;;;23.21;38.05;100953.56;4958522;28;46098;-41
2023/07/26 02:51:22;;;;;;;;;2.00;2.00;;;;;23.23;37.82;100955.19;4940906;28;56772;-43
2023/07/26 02:53:47;;;;;;;;;1.00;1.00;;;;;23.20;38.21;100954.56;4958368;28;51007;-45
2023/07/26 02:56:13;;;;;;;;;1.75;1.75;;;;;23.21;37.67;100953.56;4958521;28;51990;-44
2023/07/26 02:58:38;;;;;;;;;2.25;2.25;;;;;23.19;37.91;100956.34;4958378;28;46930;-43
2023/07/26 03:01:04;;;;;;;;;2.00;2.00;;;;;23.21;38.05;100958.88;4958482;28;45354;-45
2023/07/26 03:03:29;;;;;;;;;3.75;2.25;;;;;23.22;37.67;100952.63;4958596;28;45474;-44
2023/07/26 03:05:57;;;;;;;;;1.00;1.00;;;;;23.21;37.69;100953.56;4957866;28;57741;-44
2023/07/26 03:08:22;;;;;;;;;2.00;2.00;;;;;23.21;37.88;100953.56;4958374;28;45396;-43
2023/07/26 03:10:51;;;;;;;;;1.75;1.75;;;;;23.21;37.96;100953.56;4958285;28;45352;-40
2023/07/26 03:13:16;;;;;;;;;3.25;1.00;;;;;23.20;37.92;100952.75;4958424;28;45405;-44
2023/07/26 03:15:41;;;;;;;;;1.00;1.00;;;;;23.18;37.70;100954.59;4958489;28;45444;-42
2023/07/26 03:18:07;;;;;;;;;2.00;2.00;;;;;23.20;37.71;100957.19;4956842;28;47302;-40
2023/07/26 03:20:32;;;;;;;;;2.00;2.00;;;;;23.18;38.26;100954.59;4957729;28;56857;-47
2023/07/26 03:22:57;;;;;;;;;1.50;1.50;;;;;23.20;38.46;100959.84;4958312;28;45424;-49
2023/07/26 03:25:23;;;;;;;;;2.00;2.00;;;;;23.22;37.77;100965.84;4957788;28;49291;-48
2023/07/26 03:27:48;;;;;;;;;3.00;2.00;;;;;23.20;37.82;100962.50;4958360;28;46103;-46
2023/07/26 03:30:13;;;;;;;;;2.00;2.00;;;;;23.20;38.08;100970.41;4957945;28;45318;-44
2023/07/26 03:32:39;;;;;;;;;3.00;3.00;;;;;23.21;37.96;100974.72;4958155;28;45255;-41
2023/07/26 03:35:05;;;;;;;;;3.50;2.50;;;;;23.19;38.17;100977.47;4958240;28;45505;-42
2023/07/26 03:37:30;;;;;;;;;1.25;1.25;;;;;23.19;37.83;100968.69;4957828;28;47270;-47
2023/07/26 03:39:55;;;;;;;;;2.00;2.00;;;;;23.19;38.06;100979.25;4957875;28;45275;-44
2023/07/26 03:42:21;;;;;;;;;1.67;1.00;;;;;23.16;38.53;100975.88;4957258;28;59210;-43
2023/07/26 03:44:46;;;;;;;;;4.00;2.75;;;;;23.15;38.14;100976.81;4958339;28;45537;-47
2023/07/26 03:47:11;;;;;;;;;2.00;2.00;;;;;23.16;37.90;100982.94;4957546;28;51198;-43
2023/07/26 03:49:36;;;;;;;;;1.00;1.00;;;;;23.15;38.12;100983.91;4957746;28;45338;-46
2023/07/26 03:52:03;;;;;;;;;1.00;1.00;;;;;23.14;38.34;100971.63;4957831;28;45291;-41
2023/07/26 03:54:28;;;;;;;;;1.50;1.50;;;;;23.15;38.35;100975.97;4957963;28;45259;-41
2023/07/26 03:56:53;;;;;;;;;3.25;2.00;;;;;23.15;38.61;100970.69;4957482;28;45294;-46
2023/07/26 03:59:19;;;;;;;;;2.00;2.00;;;;;23.15;38.40;100966.22;4957302;28;60178;-43
2023/07/26 04:01:44;;;;;;;;;2.00;2.00;;;;;23.14;38.61;100969.00;4939838;28;57085;-42
2023/07/26 04:04:09;;;;;;;;;2.25;2.25;;;;;23.14;38.57;100969.81;4957903;28;45215;-47
2023/07/26 04:06:34;;;;;;;;;4.00;2.00;;;;;23.14;38.49;100964.53;4956765;28;67878;-42
2023/07/26 04:09:00;;;;;;;;;2.00;2.00;;;;;23.15;38.21;100966.22;4956991;28;54854;-48
2023/07/26 04:11:25;;;;;;;;;2.00;2.00;;;;;23.13;38.88;100956.72;4957626;28;45428;-47
2023/07/26 04:13:50;;;;;;;;;2.00;2.00;;;;;23.14;38.40;100961.88;4958077;28;45524;-44
2023/07/26 04:16:18;;;;;;;;;2.00;2.00;;;;;23.14;38.32;100959.25;4939974;28;45978;-49
2023/07/26 04:18:43;;;;;;;;;3.00;2.00;;;;;23.15;38.59;100966.22;4957405;28;45707;-40
2023/07/26 04:21:17;;;;;;;;;3.25;2.50;;;;;23.15;38.85;100965.41;4956342;28;45438;-45
2023/07/26 04:23:44;;;;;;;;;3.00;2.00;;;;;23.16;38.61;100969.72;4956653;28;45618;-42
2023/07/26 04:26:10;;;;;;;;;3.00;3.00;;;;;23.15;38.82;100968.03;4957302;28;45384;-43
2023/07/26 04:28:35;;;;;;;;;3.00;3.00;;;;;23.11;39.02;100962.09;4956959;28;45337;-39
2023/07/26 04:31:01;;;;;;;;;3.00;3.00;;;;;23.06;39.28;100966.84;4957379;28;45788;-39
2023/07/26 04:33:26;;;;;;;;;5.00;3.00;;;;;23.00;39.26;100962.78;4957284;28;45381;-41
2023/07/26 04:35:51;;;;;;;;;3.25;3.25;;;;;22.93;39.35;100972.03;4957349;28;45286;-40
2023/07/26 04:38:21;;;;;;;;;2.50;2.00;;;;;22.86;39.67;100965.44;4957057;28;45211;-43
2023/07/26 04:40:47;;;;;;;;;2.50;2.50;;;;;22.77;39.53;100966.88;4957209;28;45357;-48
2023/07/26 04:43:16;;;;;;;;;3.00;3.00;;;;;22.69;40.14;100958.59;4957160;28;45480;-48
2023/07/26 04:45:42;;;;;;;;;6.00;3.50;;;;;22.64;40.35;100969.44;4956859;28;46995;-49
2023/07/26 04:48:07;;;;;;;;;1.75;1.75;;;;;22.57;40.50;100973.41;4956993;28;45259;-55
2023/07/26 04:50:32;;;;;;;;;2.00;2.00;;;;;22.50;40.66;100970.31;4957034;28;45320;-58
2023/07/26 04:52:57;;;;;;;;;4.00;2.25;;;;;22.46;40.96;100978.50;4957076;28;45502;-46
2023/07/26 04:55:23;;;;;;;;;3.00;3.00;;;;;22.40;41.31;100974.44;4956483;28;66065;-45
2023/07/26 04:57:48;;;;;;;;;3.00;3.00;;;;;22.35;41.20;100982.63;4956071;28;64949;-45
2023/07/26 05:00:13;;;;;;;;;4.00;3.00;;;;;22.28;41.36;100980.44;4956654;28;48253;-50
2023/07/26 05:02:39;;;;;;;;;4.00;2.00;;;;;22.26;41.46;100991.13;4957040;28;45476;-49
2023/07/26 05:05:04;;;;;;;;;6.00;3.00;;;;;22.24;41.06;100991.19;4956774;28;45961;-50
2023/07/26 05:07:30;;;;;;;;;4.00;4.00;;;;;22.21;41.20;100991.38;4956737;28;45249;-45
2023/07/26 05:09:55;;;;;;;;;2.00;2.00;;;;;22.16;41.44;100982.88;4956676;28;45410;-45
2023/07/26 05:12:20;;;;;;;;;2.50;2.50;;;;;22.15;41.19;100986.47;4957288;28;45349;-47
2023/07/26 05:14:46;;;;;;;;;2.33;2.33;;;;;22.14;41.46;100984.75;4956146;28;61538;-47
2023/07/26 05:17:11;;;;;;;;;4.25;3.00;;;;;22.14;41.91;100986.56;4956473;28;47220;-51
2023/07/26 05:19:36;;;;;;;;;3.00;3.00;;;;;22.12;41.67;100991.09;4956687;28;45410;-54
2023/07/26 05:22:01;;;;;;;;;2.50;2.50;;;;;22.11;41.84;100989.38;4956776;28;45642;-42
2023/07/26 05:24:27;;;;;;;;;2.50;2.25;;;;;22.12;41.93;100985.81;4956445;28;45506;-41
2023/07/26 05:26:52;;;;;;;;;2.75;2.00;;;;;22.17;42.17;100994.28;4956907;28;45406;-44
2023/07/26 05:29:17;;;;;;;;;4.00;2.33;;;;;22.21;41.80;100991.38;4956026;28;55964;-41
2023/07/26 05:31:44;;;;;;;;;4.00;2.00;;;;;22.27;41.98;100994.59;4956732;28;45574;-40
2023/07/26 05:34:10;;;;;;;;;3.25;3.25;;;;;22.30;42.09;100999.69;4956324;28;47157;-42
2023/07/26 05:36:35;;;;;;;;;2.75;2.75;;;;;22.35;42.22;101003.75;4959689;28;45351;-41
2023/07/26 05:39:00;;;;;;;;;4.00;2.75;;;;;22.39;41.92;100997.31;4959377;28;55050;-41
2023/07/26 05:41:28;;;;;;;;;3.00;3.00;;;;;22.43;41.71;101003.31;4960313;28;45580;-40
2023/07/26 05:43:53;;;;;;;;;3.00;2.50;;;;;22.46;42.16;101004.94;4942394;28;48145;-41
2023/07/26 05:46:19;;;;;;;;;4.00;4.00;;;;;22.47;42.02;101003.97;4959813;28;45356;-44
2023/07/26 05:48:44;;;;;;;;;4.50;2.00;;;;;22.50;42.11;101009.06;4959511;28;45226;-42
2023/07/26 05:51:09;;;;;;;;;4.25;3.75;;;;;22.51;42.25;101006.34;4942437;28;45252;-43
2023/07/26 05:53:36;;;;;;;;;3.00;3.00;;;;;22.53;42.40;101022.94;4959403;28;45373;-41
2023/07/26 05:56:02;;;;;;;;;2.75;2.75;;;;;22.55;42.48;101021.03;4959358;28;45849;-46
2023/07/26 05:58:27;;;;;;;;;3.75;3.00;;;;;22.55;42.94;101023.69;4942496;28;45452;-45
2023/07/26 06:00:53;;;;;;;;;3.00;3.00;;;;;22.56;42.92;101032.47;4959976;28;45585;-44
2023/07/26 06:03:19;;;;;;;;;3.00;3.00;;;;;22.58;42.85;101025.31;4959378;28;45273;-41
2023/07/26 06:05:44;;;;;;;;;3.00;3.00;;;;;22.60;42.84;101033.97;4959293;28;45361;-42
2023/07/26 06:08:09;;;;;;;;;2.25;2.25;;;;;22.60;42.93;101033.97;4959450;28;45426;-40
2023/07/26 06:10:35;;;;;;;;;3.25;3.25;;;;;22.62;42.65;101039.19;4959544;28;45306;-43
2023/07/26 06:13:00;;;;;;;;;4.75;3.25;;;;;22.62;42.98;101041.81;4959111;28;45294;-39
2023/07/26 06:15:26;;;;;;;;;3.25;3.00;;;;;22.63;43.30;101046.16;4959540;28;45301;-42
2023/07/26 06:17:51;;;;;;;;;5.50;3.75;;;;;22.63;43.12;101040.88;4959448;28;45324;-46
2023/07/26 06:20:17;;;;;;;;;5.50;4.00;;;;;22.63;43.35;101048.81;4959297;28;45329;-44
2023/07/26 06:22:42;;;;;;;;;4.00;4.00;;;;;22.62;43.24;101047.09;4959027;28;45306;-42
2023/07/26 06:25:08;;;;;;;;;6.00;4.00;;;;;22.62;43.29;101047.94;4958693;28;53076;-48
2023/07/26 06:27:34;;;;;;;;;3.50;3.00;;;;;22.64;43.24;101042.56;4941711;28;45322;-42
2023/07/26 06:29:59;;;;;;;;;4.75;3.00;;;;;22.64;43.26;101046.06;4959531;28;45239;-43
2023/07/26 06:32:24;;;;;;;;;4.25;3.00;;;;;22.65;43.36;101053.03;4958965;28;46236;-43
2023/07/26 06:34:50;;;;;;;;;5.00;3.00;;;;;22.64;43.28;101046.06;4958712;28;45336;-44
2023/07/26 06:37:15;;;;;;;;;4.00;4.00;;;;;22.64;43.18;101059.25;4958998;28;45447;-41
2023/07/26 06:39:40;;;;;;;;;5.00;3.25;;;;;22.64;43.02;101059.25;4941854;28;45560;-42
2023/07/26 06:42:06;;;;;;;;;5.25;4.00;;;;;22.64;43.11;101058.44;4958662;28;45481;-43
2023/07/26 06:44:31;;;;;;;;;3.00;3.00;;;;;22.66;43.50;101067.09;4958809;28;45451;-40
2023/07/26 06:46:56;;;;;;;;;3.50;3.50;;;;;22.66;43.13;101062.66;4958219;28;45298;-40
2023/07/26 06:49:22;;;;;;;;;4.00;3.33;;;;;22.67;43.66;101060.88;4940871;28;52617;-43
2023/07/26 06:51:50;;;;;;;;;4.50;3.00;;;;;22.66;43.22;101065.31;4958374;28;46052;-41
2023/07/26 06:54:15;;;;;;;;;5.00;3.75;;;;;22.66;43.56;101060.03;4958603;28;45399;-44
2023/07/26 06:56:40;;;;;;;;;3.50;2.50;;;;;22.67;43.18;101071.44;4957998;28;63588;-44
2023/07/26 06:59:11;;;;;;;;;4.50;4.00;;;;;22.65;43.45;101068.06;4958742;28;45334;-42
2023/07/26 07:01:36;;;;;;;;;6.00;6.00;;;;;22.68;43.37;101066.06;4958446;28;47107;-41
2023/07/26 07:04:02;;;;;;;;;9.00;6.00;;;;;22.69;43.35;101058.97;4956954;28;45551;-40
2023/07/26 07:06:27;;;;;;;;;6.25;6.25;;;;;22.69;43.25;101053.69;4958761;28;45438;-41
2023/07/26 07:08:52;;;;;;;;;4.75;4.25;;;;;22.69;43.62;101059.84;4958402;28;46034;-43
2023/07/26 07:11:18;;;;;;;;;6.00;5.00;;;;;22.70;43.59;101055.41;4957755;28;56562;-41
2023/07/26 07:13:43;;;;;;;;;4.67;4.67;;;;;22.71;43.45;101051.81;4957484;28;62703;-46
2023/07/26 07:16:08;;;;;;;;;4.75;4.75;;;;;22.74;43.74;101050.78;4957845;28;51992;-42
2023/07/26 07:18:34;;;;;;;;;5.00;4.00;;;;;22.75;43.74;101057.75;4958048;28;45454;-41
2023/07/26 07:21:00;;;;;;;;;4.75;4.00;;;;;22.75;43.36;101052.47;4958351;28;45315;-41
2023/07/26 07:23:27;;;;;;;;;5.00;4.25;;;;;22.76;43.28;101059.47;4957955;28;45897;-39
2023/07/26 07:25:53;;;;;;;;;4.50;4.50;;;;;22.72;44.08;101064.09;4958307;28;45239;-43
2023/07/26 07:28:18;;;;;;;;;5.75;5.00;;;;;22.77;43.91;101069.09;4958154;28;45215;-40
2023/07/26 07:30:43;;;;;;;;;5.50;3.75;;;;;22.77;43.86;101066.44;4957793;28;45982;-39
2023/07/26 07:33:09;;;;;;;;;5.00;3.00;;;;;22.78;44.04;101070.78;4957688;28;45324;-39
2023/07/26 07:35:34;;;;;;;;;5.25;4.00;;;;;22.79;44.04;101070.69;4958061;28;45339;-41
2023/07/26 07:38:00;;;;;;;;;4.25;4.25;;;;;22.80;43.79;101068.91;4958538;28;45488;-44
2023/07/26 07:40:26;;;;;;;;;5.25;4.00;;;;;22.79;43.78;101060.13;4957668;28;46038;-40
2023/07/26 07:42:51;;;;;;;;;5.00;4.25;;;;;22.81;43.99;101060.03;4940178;28;45377;-39
2023/07/26 07:45:16;;;;;;;;;5.00;3.67;;;;;22.79;43.75;101054.81;4957179;28;59854;-40
2023/07/26 07:47:42;;;;;;;;;5.00;3.50;;;;;22.79;43.93;101051.34;4957556;28;45395;-41
2023/07/26 07:50:07;;;;;;;;;3.75;3.75;;;;;22.80;44.25;101053.88;4957461;28;46356;-43
2023/07/26 07:52:33;;;;;;;;;4.00;3.00;;;;;22.79;44.19;101052.19;4957957;28;45811;-41
2023/07/26 07:54:58;;;;;;;;;3.50;3.25;;;;;22.81;44.08;101058.22;4957776;28;45319;-41
2023/07/26 07:57:24;;;;;;;;;5.00;3.00;;;;;22.81;44.51;101055.59;4957577;28;45372;-42
2023/07/26 07:59:49;;;;;;;;;4.00;4.00;;;;;22.81;44.09;101046.81;4957471;28;45380;-40
2023/07/26 08:02:15;;;;;;;;;6.50;3.50;;;;;22.81;44.31;101052.94;4957479;28;45384;-43
2023/07/26 08:04:40;;;;;;;;;2.25;2.25;;;;;22.83;44.25;101050.19;4957592;28;45407;-40
2023/07/26 08:07:05;;;;;;;;;7.50;5.00;;;;;22.82;43.97;101052.00;4957690;28;45363;-41
2023/07/26 08:09:31;;;;;;;;;6.25;4.25;;;;;22.85;44.09;101065.03;4957552;28;46190;-39
2023/07/26 08:11:56;;;;;;;;;4.75;4.75;;;;;22.84;44.09;101050.13;4957399;28;45330;-43
2023/07/26 08:14:22;;;;;;;;;8.00;5.00;;;;;22.85;43.84;101062.41;4957449;28;45385;-39
2023/07/26 08:16:47;;;;;;;;;3.25;2.75;;;;;22.84;43.65;101058.06;4957523;28;45314;-43
2023/07/26 08:19:12;;;;;;;;;5.00;5.00;;;;;22.86;43.76;101057.94;4957160;28;46125;-42
2023/07/26 08:21:38;;;;;;;;;3.50;3.00;;;;;22.88;44.01;101063.13;4956819;28;58528;-40
2023/07/26 08:24:03;;;;;;;;;4.00;3.00;;;;;22.88;43.93;101063.13;4957303;28;51947;-41
2023/07/26 08:26:28;;;;;;;;;4.50;4.00;;;;;22.88;43.88;101055.19;4957416;28;45686;-42
2023/07/26 08:28:54;;;;;;;;;4.75;3.00;;;;;22.90;43.62;101064.75;4956718;28;56535;-39
2023/07/26 08:31:19;;;;;;;;;4.00;3.00;;;;;22.90;43.62;101066.53;4957191;28;45243;-44
2023/07/26 08:33:44;;;;;;;;;2.00;2.00;;;;;22.92;43.31;101065.50;4956903;28;52012;-41
2023/07/26 17:18:54;;;;;;;;;1.25;1.25;;;;;23.76;39.36;100838.78;5211766;22;45725;-45
2023/07/26 17:21:20;;;;;;;;;1.75;1.75;;;;;23.77;39.29;100837.81;4975590;28;45373;-40
2023/07/26 17:23:45;;;;;;;;;2.00;1.50;;;;;23.77;39.29;100829.88;4976210;28;45455;-40
2023/07/26 17:26:11;;;;;;;;;1.00;1.00;;;;;23.78;39.04;100836.03;4976604;28;45488;-40
2023/07/26 17:28:36;;;;;;;;;1.00;1.00;;;;;23.80;39.47;100828.84;4975784;28;45432;-41
2023/07/26 17:31:02;;;;;;;;;1.00;1.00;;;;;23.80;38.80;100830.63;4977596;28;45384;-44
2023/07/26 17:33:29;;;;;;;;;1.00;1.00;;;;;23.78;39.00;100823.66;4979469;28;45277;-44
2023/07/26 17:35:55;;;;;;;;;2.00;1.00;;;;;23.78;38.64;100823.66;4979828;28;45246;-46
2023/07/26 17:38:20;;;;;;;;;1.75;1.75;;;;;23.78;38.53;100821.00;4979379;28;46065;-41
2023/07/26 17:40:58;;;;;;;;;1.00;1.00;;;;;23.78;38.53;100823.66;4979360;28;45353;-46
2023/07/26 17:43:23;;;;;;;;;1.00;1.00;;;;;23.77;38.47;100832.53;4979010;28;45251;-49
2023/07/26 17:45:49;;;;;;;;;1.00;1.00;;;;;23.77;38.81;100829.88;4979663;28;45369;-43
2023/07/26 17:48:14;;;;;;;;;2.25;0.75;;;;;23.75;38.39;100834.47;4961694;28;46207;-46
2023/07/26 17:50:39;;;;;;;;;1.00;1.00;;;;;23.75;38.91;100831.81;4961516;28;45357;-44
2023/07/26 17:53:05;;;;;;;;;1.00;1.00;;;;;23.76;38.32;100830.84;4979614;28;45329;-43
2023/07/26 17:55:30;;;;;;;;;1.50;1.00;;;;;23.76;38.60;100833.47;4979830;28;45292;-44
2023/07/26 17:57:55;;;;;;;;;1.00;1.00;;;;;23.76;38.34;100837.94;4979072;28;45920;-45
2023/07/26 18:00:21;;;;;;;;;0.25;0.25;;;;;23.75;38.20;100833.59;4978683;28;57746;-44
2023/07/26 18:02:46;;;;;;;;;1.00;1.00;;;;;23.74;38.26;100824.81;4979205;28;45311;-45
2023/07/26 18:05:11;;;;;;;;;1.00;1.00;;;;;23.73;38.52;100833.72;4978676;28;53564;-42
2023/07/26 18:07:36;;;;;;;;;0.25;0.25;;;;;23.74;38.59;100830.13;4978959;28;45853;-40
2023/07/26 18:10:02;;;;;;;;;2.00;1.00;;;;;23.74;38.72;100829.25;4978775;28;58663;-44
2023/07/26 18:12:27;;;;;;;;;1.00;1.00;;;;;23.73;38.33;100835.50;4978938;28;45325;-40
2023/07/26 18:14:53;;;;;;;;;1.00;1.00;;;;;23.72;38.33;100829.38;4979276;28;45421;-45
2023/07/26 18:17:18;;;;;;;;;1.00;1.00;;;;;23.72;38.46;100826.72;4978648;28;47025;-47
2023/07/26 18:19:44;;;;;;;;;1.25;1.25;;;;;23.73;38.34;100835.50;4978948;28;45330;-47
2023/07/26 18:22:09;;;;;;;;;1.00;1.00;;;;;23.73;38.30;100836.38;4979025;28;45306;-41
2023/07/26 18:24:35;;;;;;;;;0.75;0.75;;;;;23.73;38.75;100822.28;4961715;28;45308;-44
2023/07/26 18:27:00;;;;;;;;;1.00;1.00;;;;;23.73;38.47;100831.06;4977409;28;45502;-45
2023/07/26 18:29:26;;;;;;;;;1.00;1.00;;;;;23.74;38.75;100831.91;4977312;28;45458;-42
2023/07/26 18:31:53;;;;;;;;;0.00;0.00;;;;;23.72;38.74;100832.03;4978892;28;45247;-45
2023/07/26 18:34:20;;;;;;;;;0.00;0.00;;;;;23.72;38.85;100829.38;4978895;28;45377;-42
2023/07/26 18:36:45;;;;;;;;;0.50;0.50;;;;;23.73;38.66;100836.38;4978508;28;47256;-42
2023/07/26 18:39:11;;;;;;;;;1.00;1.00;;;;;23.72;38.23;100832.03;4977874;28;62796;-45
2023/07/26 18:41:36;;;;;;;;;1.00;1.00;;;;;23.73;38.81;100828.44;4978388;28;45634;-40
2023/07/26 18:44:01;;;;;;;;;1.00;1.00;;;;;23.73;38.98;100833.72;4977310;28;56013;-41
2023/07/26 18:46:26;;;;;;;;;2.00;1.00;;;;;23.72;38.66;100832.03;4978465;28;45309;-44
2023/07/26 18:48:52;;;;;;;;;2.75;1.00;;;;;23.72;38.65;100821.44;4978319;28;45500;-44
2023/07/26 18:51:17;;;;;;;;;1.00;1.00;;;;;23.72;38.58;100833.81;4978338;28;46481;-43
2023/07/26 18:53:43;;;;;;;;;0.00;0.00;;;;;23.72;38.93;100826.72;4978621;28;45251;-39
2023/07/26 18:56:08;;;;;;;;;1.50;1.00;;;;;23.72;38.75;100832.03;4978490;28;47035;-44
2023/07/26 18:58:33;;;;;;;;;0.75;0.75;;;;;23.72;38.55;100832.03;4978351;28;45357;-42
2023/07/26 19:00:59;;;;;;;;;1.00;1.00;;;;;23.71;38.78;100830.31;4978408;28;45425;-44
2023/07/26 19:03:24;;;;;;;;;0.25;0.25;;;;;23.70;39.05;100828.63;4960983;28;45405;-40
2023/07/26 19:05:50;;;;;;;;;0.50;0.50;;;;;23.69;38.60;100831.38;4977719;28;58516;-42
2023/07/26 19:08:17;;;;;;;;;1.00;1.00;;;;;23.70;38.73;100833.91;4978156;28;45247;-45
2023/07/26 19:10:42;;;;;;;;;1.00;1.00;;;;;23.72;38.81;100828.50;4978324;28;45231;-43
2023/07/26 19:13:09;;;;;;;;;1.00;1.00;;;;;23.70;39.07;100828.63;4978517;28;45370;-42
2023/07/26 19:15:35;;;;;;;;;1.00;1.00;;;;;23.70;38.74;100825.97;4978290;28;46084;-46
2023/07/26 19:18:00;;;;;;;;;2.75;2.00;;;;;23.71;39.10;100830.31;4977798;28;45396;-49
2023/07/26 19:20:27;;;;;;;;;2.00;1.00;;;;;23.70;39.23;100828.63;4978121;28;45423;-44
2023/07/26 19:22:53;;;;;;;;;0.75;0.75;;;;;23.70;38.66;100828.63;4978238;28;45625;-43
2023/07/26 19:25:18;;;;;;;;;1.00;1.00;;;;;23.70;39.14;100831.28;4977853;28;46859;-44
2023/07/26 19:27:43;;;;;;;;;1.00;1.00;;;;;23.69;39.38;100821.63;4977147;28;63620;-45
2023/07/26 19:30:09;;;;;;;;;1.00;0.00;;;;;23.70;38.78;100823.34;4978179;28;45345;-40
2023/07/26 19:32:34;;;;;;;;;1.00;1.00;;;;;23.70;38.91;100819.84;4978124;28;45301;-41
2023/07/26 19:35:01;;;;;;;;;1.00;1.00;;;;;23.71;39.00;100825.03;4977601;28;46019;-42
2023/07/26 19:37:26;;;;;;;;;3.00;1.00;;;;;23.70;39.32;100827.78;4976963;28;45753;-44
2023/07/26 19:39:52;;;;;;;;;1.25;1.00;;;;;23.69;39.28;100821.63;4977310;28;52012;-44
2023/07/26 19:42:18;;;;;;;;;1.00;1.00;;;;;23.69;38.96;100820.81;4976603;28;45285;-44
2023/07/26 19:44:43;;;;;;;;;1.00;1.00;;;;;23.68;39.21;100813.81;4977546;28;46085;-43
2023/07/26 19:47:08;;;;;;;;;1.50;1.00;;;;;23.69;38.82;100815.50;4977496;28;55060;-41
2023/07/26 19:49:34;;;;;;;;;1.00;1.00;;;;;23.69;38.83;100815.50;4976931;28;61863;-40
2023/07/26 19:51:59;;;;;;;;;1.00;1.00;;;;;23.68;39.02;100819.94;4977839;28;45227;-41
2023/07/26 19:54:24;;;;;;;;;1.00;1.00;;;;;23.69;39.45;100821.63;4976944;28;45949;-46
2023/07/26 19:56:50;;;;;;;;;1.25;1.25;;;;;23.67;39.51;100812.97;4977305;28;45488;-43
2023/07/26 19:59:15;;;;;;;;;1.00;1.00;;;;;23.68;39.58;100819.94;4977469;28;45346;-41